Time;durP1;ratioP1;P1;durP2;ratioP2;P2;SDS_P1;SDS_P2;PMS_P1;PMS_P2;Temp;Humidity;BMP_temperature;BMP_pressure;BME280_temperature;BME280_humidity;BME280_pressure;Samples;Min_cycle;Max_cycle;Signal;HPM_P1;HPM_P2
2023/08/14 00:00:31;;;;;;;2.53;1.40;;;;;;;17.07;97.38;101588.97;5056514;28;20263;-76
2023/08/14 00:02:57;;;;;;;4.00;1.40;;;;;;;17.04;97.32;101594.44;5056924;28;20036;-76
2023/08/14 00:05:22;;;;;;;3.70;1.77;;;;;;;17.04;97.52;101591.78;5056214;28;20036;-76
2023/08/14 00:07:48;;;;;;;6.00;1.83;;;;;;;17.03;97.67;101591.91;5056693;28;20289;-76
2023/08/14 00:10:13;;;;;;;2.63;1.60;;;;;;;17.01;97.63;101591.97;5038845;28;20096;-76
2023/08/14 00:12:39;;;;;;;2.33;1.50;;;;;;;17.02;97.87;101584.88;5056369;28;20346;-76
2023/08/14 00:15:05;;;;;;;4.35;1.92;;;;;;;17.00;97.90;101590.25;5056996;28;20037;-76
2023/08/14 00:17:30;;;;;;;1.42;1.30;;;;;;;17.00;98.08;101594.72;5056072;28;20040;-76
2023/08/14 00:19:56;;;;;;;3.25;1.70;;;;;;;16.98;98.03;101588.66;5056245;28;20104;-76
2023/08/14 00:22:21;;;;;;;2.67;1.40;;;;;;;16.97;98.11;101593.09;5055826;28;20284;-76
2023/08/14 00:24:46;;;;;;;2.47;1.65;;;;;;;16.95;98.24;101583.53;5056904;28;20036;-76
2023/08/14 00:27:12;;;;;;;1.65;1.17;;;;;;;16.94;98.32;101589.78;5054809;28;20033;-76
2023/08/14 00:29:37;;;;;;;2.53;1.30;;;;;;;16.92;98.25;101583.69;5056245;28;20036;-76
2023/08/14 00:32:03;;;;;;;3.85;1.40;;;;;;;16.91;98.29;101582.84;5056544;28;20036;-76
2023/08/14 00:34:28;;;;;;;3.50;1.60;;;;;;;16.91;98.42;101587.28;5055900;28;20071;-76
2023/08/14 00:36:54;;;;;;;3.25;1.35;;;;;;;16.89;98.64;101579.44;5056453;28;20108;-76
2023/08/14 00:39:19;;;;;;;4.85;1.65;;;;;;;16.88;98.52;101575.94;5055932;28;20347;-76
2023/08/14 00:41:44;;;;;;;3.28;1.45;;;;;;;16.87;98.57;101571.56;5056599;28;20104;-76
2023/08/14 00:44:10;;;;;;;1.88;1.45;;;;;;;16.85;98.81;101570.81;5056653;28;20033;-76
2023/08/14 00:46:35;;;;;;;6.20;1.70;;;;;;;16.86;98.84;101572.53;5055772;28;20039;-76
2023/08/14 00:49:01;;;;;;;3.05;1.85;;;;;;;16.85;98.87;101562.03;5056071;28;20064;-76
2023/08/14 00:51:27;;;;;;;4.82;1.75;;;;;;;16.84;98.86;101563.81;5054972;28;20229;-76
2023/08/14 00:53:54;;;;;;;2.22;1.50;;;;;;;16.84;99.30;101562.94;5055952;28;20032;-76
2023/08/14 00:56:20;;;;;;;2.95;1.80;;;;;;;16.83;99.12;101564.75;5055323;28;20032;-76
2023/08/14 00:58:48;;;;;;;1.77;1.67;;;;;;;16.81;99.10;101565.75;5055902;28;20052;-76
2023/08/14 01:01:13;;;;;;;5.63;2.25;;;;;;;16.80;99.17;101559.59;5037754;28;20037;-76
2023/08/14 01:03:39;;;;;;;2.33;1.50;;;;;;;16.79;99.21;101554.38;5055279;28;20033;-76
2023/08/14 01:06:04;;;;;;;3.97;1.88;;;;;;;16.78;99.19;101560.63;5056060;28;20037;-76
2023/08/14 01:08:31;;;;;;;4.47;1.88;;;;;;;16.76;99.40;101562.50;5054829;28;20056;-76
2023/08/14 01:11:16;;;;;;;2.42;1.50;;;;;;;16.75;99.41;101563.44;5056004;28;20040;-76
2023/08/14 01:14:02;;;;;;;3.42;1.60;;;;;;;16.73;99.54;101554.72;5055798;28;20036;-76
2023/08/14 01:16:33;;;;;;;2.33;1.52;;;;;;;16.71;99.31;101560.09;5055441;28;20060;-76
2023/08/14 01:18:59;;;;;;;1.92;1.70;;;;;;;16.70;99.59;101553.13;5055491;28;20107;-76
2023/08/14 01:21:35;;;;;;;2.20;1.60;;;;;;;16.69;99.63;101551.41;5054721;28;20100;-76
2023/08/14 01:24:36;;;;;;;2.95;1.70;;;;;;;16.67;99.70;101555.94;5055872;28;20410;-76
2023/08/14 01:27:02;;;;;;;3.65;1.65;;;;;;;16.65;99.63;101548.06;5055500;28;20060;-76
2023/08/14 01:29:30;;;;;;;4.20;1.95;;;;;;;16.63;99.51;101544.66;5054878;28;20040;-76
2023/08/14 01:31:55;;;;;;;4.93;1.70;;;;;;;16.63;99.54;101539.38;5055166;28;20032;-76
2023/08/14 01:34:21;;;;;;;4.40;1.60;;;;;;;16.60;99.72;101531.59;5036468;28;20350;-76
2023/08/14 01:37:17;;;;;;;2.30;1.38;;;;;;;16.59;99.80;101527.28;5036726;28;20390;-76
2023/08/14 01:40:03;;;;;;;5.28;1.60;;;;;;;16.57;99.83;101529.16;5054606;28;20032;-76
2023/08/14 01:42:32;;;;;;;1.63;1.20;;;;;;;16.55;99.90;101528.34;5054543;28;20037;-76
2023/08/14 01:45:04;;;;;;;1.23;1.13;;;;;;;16.55;99.75;101524.88;5054603;28;20025;-76
2023/08/14 01:47:32;;;;;;;4.22;1.80;;;;;;;16.53;99.87;101524.09;5054812;28;20036;-76
2023/08/14 01:49:58;;;;;;;4.65;1.77;;;;;;;16.50;99.74;101514.56;5054564;28;20037;-76
2023/08/14 01:52:23;;;;;;;4.75;1.50;;;;;;;16.49;99.80;101521.63;5053919;28;20036;-76
2023/08/14 01:54:49;;;;;;;3.67;1.83;;;;;;;16.48;99.92;101521.69;5054632;28;20063;-76
2023/08/14 01:57:14;;;;;;;2.60;1.55;;;;;;;16.45;99.88;101519.25;5054684;28;20231;-76
2023/08/14 01:59:45;;;;;;;2.25;1.50;;;;;;;16.44;99.82;101509.59;5036265;28;20096;-76
2023/08/14 02:02:12;;;;;;;2.90;1.73;;;;;;;16.43;99.85;101505.25;5054582;28;20028;-76
2023/08/14 02:04:38;;;;;;;2.30;1.60;;;;;;;16.40;99.86;101502.78;5054087;28;20108;-76
2023/08/14 02:07:05;;;;;;;2.63;1.45;;;;;;;16.38;99.87;101500.19;5054440;28;20037;-76
2023/08/14 02:09:31;;;;;;;3.53;1.83;;;;;;;16.36;99.96;101507.38;5054382;28;20044;-73
2023/08/14 02:11:57;;;;;;;2.00;1.45;;;;;;;16.35;99.88;101497.72;5055696;28;20029;-73
2023/08/14 02:14:22;;;;;;;2.65;1.88;;;;;;;16.31;99.86;101489.09;5054809;28;20591;-73
2023/08/14 02:16:47;;;;;;;3.58;1.85;;;;;;;16.30;99.89;101492.69;5055262;28;20043;-73
2023/08/14 02:19:13;;;;;;;3.97;1.48;;;;;;;16.28;99.89;101485.78;5055380;28;20464;-73
2023/08/14 02:21:38;;;;;;;2.78;1.75;;;;;;;16.28;100.00;101491.94;5054822;28;20090;-73
2023/08/14 02:24:04;;;;;;;2.40;2.20;;;;;;;16.25;100.00;101484.16;5055279;28;20036;-73
2023/08/14 02:26:29;;;;;;;3.08;1.63;;;;;;;16.24;100.00;101490.38;5054497;28;20041;-73
2023/08/14 02:28:55;;;;;;;4.30;1.55;;;;;;;16.23;100.00;101483.41;5037340;28;20259;-73
2023/08/14 02:31:20;;;;;;;3.67;1.50;;;;;;;16.22;100.00;101489.59;5055188;28;20055;-73
2023/08/14 02:33:45;;;;;;;1.52;1.42;;;;;;;16.20;100.00;101486.19;5055486;28;20052;-73
2023/08/14 02:36:11;;;;;;;3.53;1.52;;;;;;;16.20;100.00;101488.00;5053352;28;20350;-73
2023/08/14 02:38:36;;;;;;;1.30;1.20;;;;;;;16.18;100.00;101484.59;5054079;28;20037;-73
2023/08/14 02:41:02;;;;;;;1.88;1.45;;;;;;;16.16;99.96;101483.81;5054764;28;20037;-73
2023/08/14 02:43:28;;;;;;;1.98;1.40;;;;;;;16.13;99.96;101484.81;5054570;28;20041;-73
2023/08/14 02:45:53;;;;;;;2.78;1.60;;;;;;;16.11;100.00;101487.53;5054945;28;20068;-73
2023/08/14 02:48:19;;;;;;;2.05;1.33;;;;;;;16.09;100.00;101478.00;5054221;28;20043;-73
2023/08/14 02:50:44;;;;;;;1.83;1.30;;;;;;;16.08;100.00;101492.13;5054328;28;20035;-73
2023/08/14 02:53:09;;;;;;;3.03;1.58;;;;;;;16.05;100.00;101485.22;5054564;28;20043;-76
2023/08/14 02:55:35;;;;;;;1.38;1.27;;;;;;;16.04;100.00;101490.59;5052835;28;20105;-76
2023/08/14 02:58:00;;;;;;;5.63;1.40;;;;;;;16.02;100.00;101485.38;5053326;28;20033;-76
2023/08/14 03:00:26;;;;;;;3.22;1.50;;;;;;;16.02;100.00;101495.97;5052825;28;20302;-76
2023/08/14 03:02:51;;;;;;;1.38;1.23;;;;;;;16.00;100.00;101495.19;5053185;28;20309;-76
2023/08/14 03:05:17;;;;;;;4.72;1.48;;;;;;;15.99;99.96;101489.97;5052862;28;20104;-76
2023/08/14 03:07:42;;;;;;;3.45;1.40;;;;;;;15.97;100.00;101500.66;5053097;28;20037;-76
2023/08/14 03:10:07;;;;;;;1.55;1.25;;;;;;;15.96;100.00;101500.72;5050354;28;20084;-76
2023/08/14 03:12:33;;;;;;;3.42;1.40;;;;;;;15.93;100.00;101496.44;5052844;28;20044;-76
2023/08/14 03:14:58;;;;;;;3.17;1.63;;;;;;;15.91;100.00;101496.53;5053321;28;20040;-76
2023/08/14 03:17:23;;;;;;;2.47;1.75;;;;;;;15.90;100.00;101494.00;5052788;28;20258;-76
2023/08/14 03:19:49;;;;;;;2.13;1.38;;;;;;;15.89;100.00;101493.13;5053159;28;20394;-76
2023/08/14 03:22:14;;;;;;;3.45;1.67;;;;;;;15.87;100.00;101494.97;5053074;28;20037;-76
2023/08/14 03:24:39;;;;;;;5.65;1.42;;;;;;;15.85;100.00;101494.22;5052907;28;20036;-76
2023/08/14 03:27:05;;;;;;;2.10;1.80;;;;;;;15.85;100.00;101493.38;5053181;28;20036;-76
2023/08/14 03:29:30;;;;;;;3.40;1.30;;;;;;;15.84;100.00;101499.56;5052925;28;20108;-76
2023/08/14 03:31:56;;;;;;;1.55;1.35;;;;;;;15.82;100.00;101491.72;5053156;28;20139;-76
2023/08/14 03:34:21;;;;;;;1.60;1.40;;;;;;;15.82;100.00;101485.59;5052654;28;20032;-76
2023/08/14 03:36:47;;;;;;;1.30;1.23;;;;;;;15.80;100.00;101493.59;5052817;28;20036;-76
2023/08/14 03:39:12;;;;;;;1.58;1.42;;;;;;;15.79;100.00;101478.69;5053204;28;20043;-76
2023/08/14 03:41:37;;;;;;;2.80;1.50;;;;;;;15.79;100.00;101480.47;5052611;28;20032;-76
2023/08/14 03:44:03;;;;;;;6.88;1.60;;;;;;;15.78;100.00;101489.34;5053177;28;20231;-76
2023/08/14 03:46:28;;;;;;;2.45;1.30;;;;;;;15.76;100.00;101483.28;5052534;28;20040;-76
2023/08/14 03:48:54;;;;;;;1.40;1.30;;;;;;;15.76;100.00;101492.06;5053517;28;20033;-76
2023/08/14 03:51:19;;;;;;;3.28;1.40;;;;;;;15.74;100.00;101480.72;5052261;28;20032;-76
2023/08/14 03:53:44;;;;;;;1.92;1.55;;;;;;;15.73;100.00;101492.19;5052728;28;20028;-76
2023/08/14 03:56:10;;;;;;;2.60;1.30;;;;;;;15.72;100.00;101490.50;5052089;28;20044;-76
2023/08/14 03:58:35;;;;;;;1.67;1.38;;;;;;;15.71;100.00;101489.59;5052308;28;20358;-76
2023/08/14 04:01:01;;;;;;;2.28;1.35;;;;;;;15.71;100.00;101491.41;5053006;28;20159;-76
2023/08/14 04:03:26;;;;;;;2.65;1.48;;;;;;;15.70;100.00;101490.56;5056239;28;20074;-76
2023/08/14 04:06:00;;;;;;;2.55;1.42;;;;;;;15.70;100.00;101490.56;5056569;28;20032;-76
2023/08/14 04:08:25;;;;;;;2.10;1.60;;;;;;;15.70;100.00;101485.28;5055542;28;20036;-76
2023/08/14 04:10:57;;;;;;;1.63;1.45;;;;;;;15.69;100.00;101491.47;5056601;28;20314;-76
2023/08/14 04:13:23;;;;;;;1.35;1.25;;;;;;;15.69;100.00;101493.28;5055871;28;20389;-76
2023/08/14 04:15:48;;;;;;;3.75;1.90;;;;;;;15.69;100.00;101488.00;5056478;28;20365;-76
2023/08/14 04:18:13;;;;;;;1.60;1.40;;;;;;;15.68;100.00;101478.34;5056410;28;20048;-76
2023/08/14 04:20:39;;;;;;;1.90;1.40;;;;;;;15.67;100.00;101481.94;5055820;28;20048;-76
2023/08/14 04:23:05;;;;;;;2.10;1.50;;;;;;;15.66;100.00;101478.47;5055919;28;20029;-76
2023/08/14 04:25:31;;;;;;;3.70;1.30;;;;;;;15.67;100.00;101479.31;5055582;28;20029;-76
2023/08/14 04:27:57;;;;;;;2.67;1.25;;;;;;;15.66;100.00;101474.94;5055975;28;20120;-76
2023/08/14 04:30:22;;;;;;;1.70;1.60;;;;;;;15.66;100.00;101477.59;5055704;28;20220;-76
2023/08/14 04:32:47;;;;;;;4.00;1.67;;;;;;;15.65;100.00;101474.09;5055811;28;20336;-76
2023/08/14 04:35:13;;;;;;;3.40;1.67;;;;;;;15.65;100.00;101467.97;5055621;28;20039;-76
2023/08/14 04:37:38;;;;;;;3.60;1.65;;;;;;;15.65;100.00;101468.81;5055237;28;20047;-76
2023/08/14 04:40:05;;;;;;;2.00;1.80;;;;;;;15.65;100.00;101465.34;5056234;28;20358;-76
2023/08/14 04:42:31;;;;;;;2.40;1.30;;;;;;;15.64;100.00;101466.25;5055238;28;20052;-76
2023/08/14 04:44:57;;;;;;;2.30;1.67;;;;;;;15.64;100.00;101469.75;5055697;28;20036;-76
2023/08/14 04:47:22;;;;;;;1.70;1.55;;;;;;;15.64;100.00;101456.53;5055318;28;20743;-76
2023/08/14 04:49:48;;;;;;;3.63;1.75;;;;;;;15.64;100.00;101458.34;5055705;28;20043;-76
2023/08/14 04:52:13;;;;;;;2.53;1.65;;;;;;;15.64;100.00;101460.97;5055219;28;20389;-76
2023/08/14 04:54:38;;;;;;;2.88;1.55;;;;;;;15.63;100.00;101457.47;5054794;28;20044;-76
2023/08/14 04:57:04;;;;;;;1.90;1.55;;;;;;;15.63;100.00;101460.13;5055831;28;20040;-76
2023/08/14 04:59:29;;;;;;;5.22;1.50;;;;;;;15.64;100.00;101456.53;5055275;28;20071;-76
2023/08/14 05:01:55;;;;;;;1.58;1.48;;;;;;;15.63;100.00;101444.28;5055605;28;20055;-76
2023/08/14 05:04:21;;;;;;;2.40;1.63;;;;;;;15.64;100.00;101445.13;5054647;28;20278;-76
2023/08/14 05:06:47;;;;;;;2.38;1.55;;;;;;;15.64;100.00;101445.13;5055254;28;20040;-76
2023/08/14 05:09:12;;;;;;;1.63;1.52;;;;;;;15.63;100.00;101443.44;5054938;28;20049;-76
2023/08/14 05:11:38;;;;;;;4.70;1.90;;;;;;;15.63;100.00;101449.56;5054228;28;20059;-76
2023/08/14 05:14:03;;;;;;;2.90;1.60;;;;;;;15.63;100.00;101457.47;5054350;28;20102;-76
2023/08/14 05:16:28;;;;;;;2.70;1.85;;;;;;;15.63;100.00;101454.84;5054605;28;20132;-76
2023/08/14 05:18:54;;;;;;;2.03;1.92;;;;;;;15.64;100.00;101455.69;5055376;28;20072;-76
2023/08/14 05:21:19;;;;;;;2.60;2.10;;;;;;;15.63;100.00;101459.28;5054167;28;20109;-76
2023/08/14 05:23:45;;;;;;;2.72;2.00;;;;;;;15.64;100.00;101460.97;5054846;28;20033;-76
2023/08/14 05:26:10;;;;;;;2.85;1.85;;;;;;;15.63;100.00;101459.28;5054920;28;20147;-76
2023/08/14 05:28:35;;;;;;;3.60;2.22;;;;;;;15.63;100.00;101464.56;5054072;28;20028;-76
2023/08/14 05:31:01;;;;;;;8.50;2.38;;;;;;;15.63;100.00;101461.91;5054835;28;20312;-76
2023/08/14 05:33:26;;;;;;;3.88;2.33;;;;;;;15.62;100.00;101458.41;5054298;28;20041;-76
2023/08/14 05:35:51;;;;;;;3.63;2.20;;;;;;;15.63;100.00;101459.28;5054596;28;20028;-76
2023/08/14 05:38:17;;;;;;;3.75;2.63;;;;;;;15.62;100.00;101458.41;5053927;28;20032;-76
2023/08/14 05:40:42;;;;;;;2.17;2.00;;;;;;;15.63;100.00;101454.84;5054756;28;20036;-76
2023/08/14 05:43:10;;;;;;;2.40;2.20;;;;;;;15.63;100.00;101449.56;5054506;28;20082;-76
2023/08/14 05:45:37;;;;;;;3.92;2.30;;;;;;;15.64;100.00;101453.06;5035958;28;20052;-76
2023/08/14 05:48:04;;;;;;;5.00;2.53;;;;;;;15.64;100.00;101450.41;5054588;28;20024;-76
2023/08/14 05:50:30;;;;;;;6.68;2.53;;;;;;;15.65;100.00;101457.41;5053817;28;20049;-76
2023/08/14 05:52:59;;;;;;;2.55;2.30;;;;;;;15.65;100.00;101458.25;5054298;28;20037;-76
2023/08/14 05:55:25;;;;;;;5.38;2.88;;;;;;;15.66;100.00;101459.97;5036469;28;20044;-76
2023/08/14 05:57:51;;;;;;;3.97;2.60;;;;;;;15.67;100.00;101459.03;5054577;28;20043;-76
2023/08/14 06:00:17;;;;;;;5.13;2.88;;;;;;;15.67;100.00;101463.47;5053834;28;20036;-76
2023/08/14 06:02:43;;;;;;;2.95;2.45;;;;;;;15.68;100.00;101462.50;5054331;28;20203;-76
2023/08/14 06:05:09;;;;;;;11.00;2.85;;;;;;;15.69;100.00;101458.94;5054284;28;20036;-76
2023/08/14 06:07:35;;;;;;;6.03;3.15;;;;;;;15.71;100.00;101467.63;5053574;28;20028;-76
2023/08/14 06:10:05;;;;;;;3.45;2.70;;;;;;;15.71;100.00;101462.34;5054068;28;20053;-76
2023/08/14 06:12:31;;;;;;;6.45;3.00;;;;;;;15.72;100.00;101461.44;5053542;28;20040;-76
2023/08/14 06:14:57;;;;;;;5.80;3.17;;;;;;;15.73;100.00;101463.13;5054235;28;20043;-76
2023/08/14 06:17:22;;;;;;;5.68;2.85;;;;;;;15.74;100.00;101463.09;5053804;28;20040;-76
2023/08/14 06:19:48;;;;;;;4.85;2.97;;;;;;;15.75;100.00;101458.66;5054222;28;20092;-76
2023/08/14 06:22:15;;;;;;;4.88;3.00;;;;;;;15.76;100.00;101460.38;5054143;28;20394;-76
2023/08/14 06:24:40;;;;;;;7.82;3.30;;;;;;;15.78;100.00;101462.94;5053677;28;20051;-76
2023/08/14 06:27:06;;;;;;;8.65;3.05;;;;;;;15.80;100.00;101461.06;5054615;28;20367;-76
2023/08/14 06:29:31;;;;;;;4.00;2.80;;;;;;;15.82;100.00;101456.53;5053442;28;20209;-76
2023/08/14 06:31:57;;;;;;;4.90;2.88;;;;;;;15.83;100.00;101459.13;5054283;28;20032;-76
2023/08/14 06:34:23;;;;;;;3.72;2.45;;;;;;;15.85;100.00;101469.59;5053321;28;20380;-76
2023/08/14 06:36:48;;;;;;;3.35;2.70;;;;;;;15.86;100.00;101466.88;5053663;28;20227;-76
2023/08/14 06:39:13;;;;;;;3.10;2.60;;;;;;;15.88;100.00;101469.41;5035126;28;20029;-76
2023/08/14 06:41:39;;;;;;;4.25;2.75;;;;;;;15.90;100.00;101467.56;5053616;28;20032;-76
2023/08/14 06:44:11;;;;;;;5.53;3.20;;;;;;;15.92;100.00;101473.63;5053820;28;20043;-76
2023/08/14 06:46:36;;;;;;;3.80;2.60;;;;;;;15.92;100.00;101474.47;5052916;28;20047;-76
2023/08/14 06:49:02;;;;;;;3.30;2.50;;;;;;;15.95;100.00;101475.25;5053519;28;20383;-76
2023/08/14 06:51:27;;;;;;;4.07;2.30;;;;;;;15.95;100.00;101481.38;5052771;28;20251;-76
2023/08/14 06:53:53;;;;;;;3.28;2.10;;;;;;;15.97;100.00;101478.66;5053654;28;20032;-76
2023/08/14 06:56:19;;;;;;;3.63;2.20;;;;;;;15.97;100.00;101474.25;5052890;28;20037;-76
2023/08/14 06:58:44;;;;;;;2.67;2.47;;;;;;;15.99;100.00;101467.09;5053484;28;20092;-76
2023/08/14 07:01:09;;;;;;;2.60;2.40;;;;;;;16.01;100.00;101466.97;5053295;28;20082;-76
2023/08/14 07:03:35;;;;;;;4.53;2.63;;;;;;;16.03;100.00;101479.19;5052788;28;20379;-76
2023/08/14 07:06:00;;;;;;;2.78;2.15;;;;;;;16.05;100.00;101473.81;5053214;28;20340;-76
2023/08/14 07:08:28;;;;;;;2.45;2.28;;;;;;;16.07;100.00;101485.16;5052759;28;20103;-76
2023/08/14 07:10:53;;;;;;;2.95;2.38;;;;;;;16.07;100.00;101480.72;5053432;28;20044;-76
2023/08/14 07:13:19;;;;;;;3.72;2.13;;;;;;;16.10;100.00;101490.28;5052855;28;20378;-76
2023/08/14 07:15:47;;;;;;;3.42;2.92;;;;;;;16.13;100.00;101492.75;5053486;28;20334;-76
2023/08/14 07:18:14;;;;;;;4.95;2.33;;;;;;;16.14;100.00;101493.63;5052999;28;20097;-76
2023/08/14 07:20:39;;;;;;;2.72;2.03;;;;;;;16.16;100.00;101505.81;5052600;28;20025;-76
2023/08/14 07:23:05;;;;;;;2.03;1.92;;;;;;;16.16;100.00;101500.53;5053214;28;20056;-76
2023/08/14 07:25:31;;;;;;;2.75;2.25;;;;;;;16.18;100.00;101490.72;5052569;28;20515;-76
2023/08/14 07:27:56;;;;;;;3.38;1.92;;;;;;;16.19;100.00;101494.19;5053289;28;20071;-76
2023/08/14 07:30:22;;;;;;;2.95;2.03;;;;;;;16.20;100.00;101480.91;5052729;28;20044;-76
2023/08/14 07:32:47;;;;;;;1.90;1.80;;;;;;;16.22;100.00;101486.13;5053443;28;20127;-76
2023/08/14 07:35:13;;;;;;;5.00;1.80;;;;;;;16.24;100.00;101486.88;5053036;28;20524;-76
2023/08/14 07:37:38;;;;;;;4.65;1.83;;;;;;;16.26;100.00;101483.25;5055312;28;20190;-76
2023/08/14 07:40:06;;;;;;;4.10;1.98;;;;;;;16.29;100.00;101469.84;5057192;28;20219;-76
2023/08/14 07:42:32;;;;;;;1.60;1.42;;;;;;;16.31;100.00;101459.19;5056032;28;20075;-76
2023/08/14 07:44:57;;;;;;;2.05;1.42;;;;;;;16.36;100.00;101448.38;5057147;28;20021;-76
2023/08/14 07:47:23;;;;;;;1.67;1.58;;;;;;;16.38;100.00;101451.78;5056262;28;20035;-76
2023/08/14 07:49:48;;;;;;;1.58;1.20;;;;;;;16.42;100.00;101466.53;5056590;28;20044;-76
2023/08/14 07:52:13;;;;;;;1.83;1.20;;;;;;;16.46;100.00;101470.69;5056295;28;20236;-76
2023/08/14 07:54:39;;;;;;;2.45;1.17;;;;;;;16.50;100.00;101457.22;5056243;28;20037;-76
2023/08/14 07:57:04;;;;;;;1.48;1.20;;;;;;;16.51;100.00;101435.13;5056671;28;20100;-76
2023/08/14 07:59:30;;;;;;;2.78;1.20;;;;;;;16.57;100.00;101436.59;5056329;28;20032;-76
2023/08/14 08:01:55;;;;;;;2.38;1.10;;;;;;;16.61;100.00;101437.28;5056466;28;20037;-76
2023/08/14 08:04:21;;;;;;;2.72;0.90;;;;;;;16.63;99.81;101438.88;5056310;28;20064;-76
2023/08/14 08:06:46;;;;;;;4.25;1.20;;;;;;;16.66;99.97;101437.84;5056344;28;20032;-76
2023/08/14 08:09:12;;;;;;;4.03;1.05;;;;;;;16.70;99.55;101439.41;5056118;28;20260;-76
2023/08/14 08:11:37;;;;;;;1.30;1.05;;;;;;;16.74;99.47;101433.00;5056280;28;20021;-76
2023/08/14 08:14:05;;;;;;;3.10;1.25;;;;;;;16.77;99.21;101446.06;5056426;28;20045;-76
2023/08/14 08:16:34;;;;;;;1.92;1.45;;;;;;;16.80;99.27;101455.59;5055996;28;20124;-76
2023/08/14 08:19:02;;;;;;;1.23;1.00;;;;;;;16.83;98.87;101448.38;5056049;28;20033;-76
2023/08/14 08:21:27;;;;;;;3.38;1.35;;;;;;;16.86;98.72;101439.38;5055257;28;20048;-76
2023/08/14 08:23:53;;;;;;;1.98;1.20;;;;;;;16.88;98.27;101434.84;5056166;28;20033;-76
2023/08/14 08:26:18;;;;;;;3.17;1.05;;;;;;;16.91;98.02;101433.84;5055880;28;20055;-76
2023/08/14 08:28:44;;;;;;;5.43;1.10;;;;;;;16.94;98.26;101437.16;5056150;28;20586;-76
2023/08/14 08:31:09;;;;;;;3.30;1.10;;;;;;;16.97;97.96;101434.34;5055849;28;20075;-76
2023/08/14 08:33:35;;;;;;;1.88;1.10;;;;;;;17.01;97.97;101440.31;5055289;28;20086;-76
2023/08/14 08:36:00;;;;;;;3.92;1.20;;;;;;;17.02;97.86;101440.19;5055694;28;20058;-76
2023/08/14 08:38:25;;;;;;;1.20;1.10;;;;;;;17.06;97.77;101447.03;5055387;28;20347;-76
2023/08/14 08:40:52;;;;;;;5.90;1.40;;;;;;;17.11;97.43;101451.22;5055888;28;20250;-76
2023/08/14 08:43:19;;;;;;;3.22;1.20;;;;;;;17.14;97.55;101453.69;5055241;28;20055;-76
2023/08/14 08:45:55;;;;;;;2.38;1.13;;;;;;;17.17;97.45;101456.13;5055715;28;20071;-76
2023/08/14 08:48:22;;;;;;;1.77;1.10;;;;;;;17.21;97.08;101447.09;5054288;28;20039;-76
2023/08/14 08:50:49;;;;;;;1.27;1.17;;;;;;;17.24;97.27;101458.31;5056078;28;20311;-76
2023/08/14 08:53:18;;;;;;;2.15;1.13;;;;;;;17.28;97.15;101453.69;5055028;28;20348;-76
2023/08/14 08:55:43;;;;;;;4.03;1.52;;;;;;;17.31;97.06;101448.22;5055499;28;20041;-76
2023/08/14 08:58:12;;;;;;;2.47;1.13;;;;;;;17.35;96.89;101455.03;5055446;28;20044;-76
2023/08/14 09:00:37;;;;;;;;;;;;;;;17.39;96.91;101466.31;5055357;28;20324;-76
2023/08/14 09:03:03;;;;;;;2.95;1.77;;;;;;;17.42;96.80;101452.88;5055458;28;19962;-76
2023/08/14 09:05:30;;;;;;;2.60;1.42;;;;;;;17.46;97.12;101447.34;5054877;28;20028;-76
2023/08/14 09:07:58;;;;;;;2.65;1.70;;;;;;;17.50;97.17;101440.06;5055319;28;20032;-76
2023/08/14 09:10:25;;;;;;;1.90;1.60;;;;;;;17.55;97.03;101442.41;5054583;28;20051;-76
2023/08/14 09:12:51;;;;;;;3.17;1.60;;;;;;;17.59;97.49;101438.63;5055043;28;20051;-76
2023/08/14 09:15:17;;;;;;;1.98;1.58;;;;;;;17.63;97.51;101433.06;5055010;28;20040;-76
2023/08/14 09:17:42;;;;;;;5.35;1.83;;;;;;;17.70;97.24;101432.66;5055252;28;20067;-76
2023/08/14 09:20:14;;;;;;;2.45;1.33;;;;;;;17.75;97.47;101431.44;5054862;28;20323;-76
2023/08/14 09:22:40;;;;;;;3.60;1.70;;;;;;;17.81;97.46;101430.25;5054256;28;20039;-76
2023/08/14 09:25:06;;;;;;;3.30;1.70;;;;;;;17.86;97.42;101422.03;5054793;28;20036;-76
2023/08/14 09:27:32;;;;;;;3.08;1.73;;;;;;;17.92;97.64;101426.94;5054363;28;20249;-76
2023/08/14 09:29:58;;;;;;;3.28;1.60;;;;;;;17.97;97.56;101424.84;5054868;28;20230;-76
2023/08/14 09:32:24;;;;;;;2.67;1.52;;;;;;;18.01;97.57;101421.94;5054188;28;20028;-76
2023/08/14 09:35:00;;;;;;;5.38;2.13;;;;;;;18.07;97.55;101425.97;5054612;28;20086;-76
2023/08/14 09:37:27;;;;;;;4.10;1.60;;;;;;;18.11;97.45;101424.84;5054415;28;20216;-76
2023/08/14 09:40:12;;;;;;;4.68;2.10;;;;;;;18.17;97.53;101419.16;5054542;28;20037;-76
2023/08/14 09:42:38;;;;;;;1.85;1.63;;;;;;;18.22;97.57;101417.03;5054375;28;20037;-76
2023/08/14 09:45:04;;;;;;;3.53;2.00;;;;;;;18.26;97.75;101409.75;5054479;28;20064;-76
2023/08/14 09:47:31;;;;;;;2.97;1.85;;;;;;;18.32;97.80;101408.50;5054417;28;20245;-76
2023/08/14 09:49:56;;;;;;;4.47;2.00;;;;;;;18.36;97.45;101407.38;5054343;28;20084;-76
2023/08/14 09:52:24;;;;;;;2.17;1.60;;;;;;;18.42;97.47;101401.66;5053899;28;20324;-76
2023/08/14 09:54:50;;;;;;;4.65;2.10;;;;;;;18.47;97.66;101401.38;5054728;28;20355;-76
2023/08/14 09:57:16;;;;;;;3.97;2.20;;;;;;;18.51;97.20;101408.19;5054440;28;20335;-76
2023/08/14 09:59:42;;;;;;;6.25;2.38;;;;;;;18.55;97.13;101399.91;5053991;28;20363;-76
2023/08/14 10:02:14;;;;;;;2.42;1.63;;;;;;;18.61;96.95;101396.88;5054634;28;20125;-76
2023/08/14 10:04:41;;;;;;;4.35;2.10;;;;;;;18.67;96.74;101394.78;5053827;28;20290;-76
2023/08/14 10:07:07;;;;;;;2.38;1.70;;;;;;;18.72;96.25;101397.94;5053973;28;20041;-76
2023/08/14 10:09:34;;;;;;;5.43;1.42;;;;;;;18.75;95.91;101398.59;5053228;28;20052;-76
2023/08/14 10:12:08;;;;;;;3.60;1.73;;;;;;;18.80;95.60;101393.84;5053968;28;20236;-76
2023/08/14 10:14:35;;;;;;;3.58;1.60;;;;;;;18.84;95.73;101391.03;5053468;28;20033;-76
2023/08/14 10:17:04;;;;;;;4.90;1.70;;;;;;;18.87;95.69;101385.50;5053904;28;20126;-76
2023/08/14 10:19:31;;;;;;;2.42;1.40;;;;;;;18.92;95.63;101386.06;5053459;28;20331;-76
2023/08/14 10:21:58;;;;;;;2.97;1.75;;;;;;;18.96;95.13;101375.13;5053729;28;20028;-76
2023/08/14 10:24:27;;;;;;;2.33;1.40;;;;;;;19.01;95.14;101380.13;5053257;28;20438;-76
2023/08/14 10:27:01;;;;;;;2.83;1.70;;;;;;;19.04;94.58;101379.91;5053891;28;20348;-76
2023/08/14 10:29:27;;;;;;;2.08;1.38;;;;;;;19.08;93.80;101381.41;5053119;28;20082;-76
2023/08/14 10:31:53;;;;;;;1.90;1.08;;;;;;;19.12;93.58;101387.38;5053591;28;20036;-76
2023/08/14 10:34:20;;;;;;;2.08;1.50;;;;;;;19.14;93.46;101381.00;5053300;28;20121;-76
2023/08/14 10:36:49;;;;;;;2.65;1.60;;;;;;;19.18;93.11;101384.28;5053771;28;20029;-76
2023/08/14 10:39:15;;;;;;;2.17;1.23;;;;;;;19.21;93.08;101377.91;5035228;28;20056;-76
2023/08/14 10:41:40;;;;;;;1.88;1.42;;;;;;;19.25;93.24;101377.59;5053244;28;20219;-76
2023/08/14 10:44:10;;;;;;;4.28;1.75;;;;;;;19.29;92.65;101380.91;5053548;28;20037;-76
2023/08/14 10:46:43;;;;;;;6.97;2.13;;;;;;;19.33;92.26;101391.19;5053139;28;20438;-76
2023/08/14 10:49:11;;;;;;;4.93;1.90;;;;;;;19.39;91.97;101379.28;5053781;28;20045;-76
2023/08/14 10:51:40;;;;;;;5.15;1.65;;;;;;;19.43;91.70;101390.53;5052994;28;20029;-76
2023/08/14 10:54:15;;;;;;;1.50;1.38;;;;;;;19.46;91.44;101383.22;5053311;28;20088;-76
2023/08/14 10:56:42;;;;;;;3.67;1.77;;;;;;;19.49;91.51;101380.34;5053285;28;20181;-76
2023/08/14 10:59:19;;;;;;;4.40;1.30;;;;;;;19.52;91.29;101372.19;5035559;28;20029;-76
2023/08/14 11:01:49;;;;;;;2.95;1.13;;;;;;;19.55;91.44;101371.97;5053386;28;20098;-76
2023/08/14 11:04:14;;;;;;;4.50;1.30;;;;;;;19.60;91.61;101363.66;5053584;28;20071;-76
2023/08/14 11:06:58;;;;;;;2.72;1.60;;;;;;;19.63;91.22;101365.25;5053058;28;20033;-76
2023/08/14 11:09:25;;;;;;;4.28;1.80;;;;;;;19.64;91.28;101362.47;5052596;28;20044;-76
2023/08/14 11:11:55;;;;;;;5.07;1.87;;;;;;;19.66;90.89;101363.22;5055072;28;20025;-76
2023/08/14 11:14:20;;;;;;;5.68;2.03;;;;;;;19.69;90.66;101386.94;5056937;28;20056;-76
2023/08/14 11:16:49;;;;;;;3.65;1.58;;;;;;;19.69;90.70;101375.47;5057657;28;20335;-76
2023/08/14 11:19:17;;;;;;;4.38;1.50;;;;;;;19.72;90.09;101361.97;5057659;28;20148;-76